Airfield :







YOU CAN JOIN US ON...

 
LOGIN :

Register | Disclaimer

   EN    FR    IT 

 









Legend :    VFR   Marginal VFR   IFR   Intensive IFR   Very Intensive IFR
Visi :
Ceiling :
>= 8 km
>= 3000ft
5 to 8 km
1000 to 3000 ft
1500m to 5 km
500 to 1000 ft
800 to 1500m
200 to 500 ft
< 800m
< 200 ft
Symbols :   Thunderstorms  Fog  Heavy snow  Heavy precipitations  Wind > 20 kt






- Airport Elevation : 1166 ft


KMPV - Edward F Knapp State

CURRENT METAR :
  • 102051Z AUTO 30009KT 10SM FEW008 SCT014 OVC026 04/01 A2977 RMK AO2 RAE14 SLP090 P0000 60006 T00390006 51027

EXPIRED METARs :
  • 102025Z AUTO 33008KT 10SM SCT008 BKN014 OVC026 04/03 A2975 RMK AO2 RAE14 P0000 T00440033
  • 101951Z AUTO 34009KT 6SM -RA BR FEW004 BKN017 OVC038 06/04 A2970 RMK AO2 SLP064 P0003 T00610044
  • 101912Z AUTO 23006KT 7SM -RA FEW016 SCT026 OVC035 07/05 A2969 RMK AO2 P0001 T00720050
  • 101858Z AUTO 25005KT 7SM -RA SCT018 BKN027 OVC041 07/05 A2969 RMK AO2 P0000 T00720050
  • 101851Z AUTO VRB06KT 7SM -RA FEW016 SCT024 OVC031 07/05 A2969 RMK AO2 SLP059 P0003 T00720050

TAF KMPV
Valid from the 10 at 18:00 until the 11 at 18:00 UTC


101746Z 1018/1118 25009KT 6SM BR VCSH SCT025 OVC040
TEMPO 1018/1021 6SM -RA BR OVC025
FM102100 28009KT P6SM VCSH OVC023
FM102300 29009KT P6SM BKN060
FM110900 32006KT P6SM BKN100



MET'MAP, your aeronautical weather chart ! - Copyright ORBIFLY December 2007 - Disclaimer

ORBIFLY MET'MAP TEAM :

Programming & Development : Alexandra Zaïnal
Concept & original design : Baudouin d'Aumeries
Assistance for programming : Marc-Olivier Méhu
Technical & hardware support : Manuel Goepfert

Contact : metmap@orbifly.com




SOURCES & CREDITS :

   NOAA